Wednesday, August 15, 2018, 11:05 AM GMT
Back to Local

CWQH, Lennoxville

Location: , , Canada Lat: 45.367
Local Time: 11:05 AM GMT (11:05 GMT) Lon: -71.817
Time Zone: GMT Elev: 593 ft

Show me the last for .
Show Coded

Time T Td Feel RH Dir Speed Gust Alt SLP Vis Weather Sky Remarks
2018-08-15 10:00 62 63 - 103 310° 1 - - - 0 None
2018-08-15 09:00 64 63 - 97 110° 1 - - - 0 None
2018-08-15 08:00 64 64 - 103 300° 1 - - - 0 None
2018-08-15 07:00 67 65 - 96 180° 2 - - - 0 None
2018-08-15 06:00 67 64 - 89 170° 1 - - - 0 None
2018-08-15 05:00 68 67 - 95 - Calm - - - 0 None
2018-08-15 04:00 69 67 - 95 - Calm - - - 0 None
2018-08-15 03:00 69 68 - 96 160° 1 - - - 0 None
2018-08-15 02:00 69 68 - 95 150° 1 - - - 0 None
2018-08-15 01:00 72 70 76 94 60° 3 - - - 0 None
2018-08-15 00:00 73 71 78 92 50° 3 - - - 0 None
2018-08-14 23:00 76 71 80 85 20° 6 - - - 0 None
2018-08-14 22:00 78 72 82 82 40° 3 - - - 0 None
2018-08-14 21:00 78 70 82 76 110° 1 - - - 0 None
2018-08-14 20:00 76 70 80 81 150° 2 - - - 0 None
2018-08-14 19:00 72 70 76 93 100° 3 - - - 0 1-hr Precip Total: 0.15"
2018-08-14 18:00 71 70 76 94 160° 2 - - - 0 1-hr Precip Total: 0.36"
2018-08-14 17:00 74 67 78 77 190° 1 - - - 0 None
2018-08-14 16:00 74 70 78 85 300° 2 - - - 0 None
2018-08-14 15:00 74 69 78 85 220° 2 - - - 0 None
2018-08-14 14:00 74 68 77 81 190° 2 - - - 0 None
2018-08-14 13:00 72 68 77 85 20° 5 - - - 0 None
2018-08-14 12:00 70 67 - 90 50° 5 - - - 0 None

Support USWX by starting your Amazon purchase here.